sensor_id;sensor_type;location;lat;lon;timestamp;temperature;humidity
42663;DHT22;44330;51.360;6.686;2023-05-16T04:06:09;8.50;90.10
42663;DHT22;44330;51.360;6.686;2023-05-16T04:09:01;8.40;90.10
42663;DHT22;44330;51.360;6.686;2023-05-16T04:12:09;8.40;90.60
42663;DHT22;44330;51.360;6.686;2023-05-16T04:15:25;8.40;90.90
42663;DHT22;44330;51.360;6.686;2023-05-16T04:17:53;8.30;90.80
42663;DHT22;44330;51.360;6.686;2023-05-16T04:20:19;8.30;90.80
42663;DHT22;44330;51.360;6.686;2023-05-16T04:22:45;8.30;90.80
42663;DHT22;44330;51.360;6.686;2023-05-16T04:25:11;8.30;91.10
42663;DHT22;44330;51.360;6.686;2023-05-16T04:27:39;8.30;90.60
42663;DHT22;44330;51.360;6.686;2023-05-16T04:30:05;8.20;90.30
42663;DHT22;44330;51.360;6.686;2023-05-16T04:32:31;8.20;90.40
42663;DHT22;44330;51.360;6.686;2023-05-16T04:35:19;8.20;90.50
42663;DHT22;44330;51.360;6.686;2023-05-16T04:37:46;8.20;90.80
42663;DHT22;44330;51.360;6.686;2023-05-16T04:40:16;8.20;91.00
42663;DHT22;44330;51.360;6.686;2023-05-16T04:42:41;8.20;91.20
42663;DHT22;44330;51.360;6.686;2023-05-16T04:45:08;8.20;91.10
42663;DHT22;44330;51.360;6.686;2023-05-16T04:47:36;8.20;91.20
42663;DHT22;44330;51.360;6.686;2023-05-16T04:50:02;8.20;91.20
42663;DHT22;44330;51.360;6.686;2023-05-16T04:52:37;8.20;91.40
42663;DHT22;44330;51.360;6.686;2023-05-16T04:55:08;8.30;91.30
42663;DHT22;44330;51.360;6.686;2023-05-16T04:57:34;8.30;90.90
42663;DHT22;44330;51.360;6.686;2023-05-16T05:00:05;8.20;90.70
42663;DHT22;44330;51.360;6.686;2023-05-16T05:02:33;8.20;90.80
42663;DHT22;44330;51.360;6.686;2023-05-16T05:10:29;8.30;90.80
42663;DHT22;44330;51.360;6.686;2023-05-16T05:12:56;8.20;90.60
42663;DHT22;44330;51.360;6.686;2023-05-16T05:15:21;8.30;91.10
42663;DHT22;44330;51.360;6.686;2023-05-16T05:17:47;8.40;91.50
42663;DHT22;44330;51.360;6.686;2023-05-16T05:20:13;8.40;91.80
42663;DHT22;44330;51.360;6.686;2023-05-16T05:22:39;8.40;91.50
42663;DHT22;44330;51.360;6.686;2023-05-16T05:25:06;8.50;91.60
42663;DHT22;44330;51.360;6.686;2023-05-16T05:27:32;8.50;91.40
42663;DHT22;44330;51.360;6.686;2023-05-16T05:29:58;8.60;91.10
42663;DHT22;44330;51.360;6.686;2023-05-16T05:32:24;8.60;90.90
42663;DHT22;44330;51.360;6.686;2023-05-16T05:34:49;8.70;90.50
42663;DHT22;44330;51.360;6.686;2023-05-16T05:37:15;8.70;89.70
42663;DHT22;44330;51.360;6.686;2023-05-16T05:39:41;8.80;89.40
42663;DHT22;44330;51.360;6.686;2023-05-16T05:42:06;8.80;90.00
42663;DHT22;44330;51.360;6.686;2023-05-16T05:44:32;8.90;90.20
42663;DHT22;44330;51.360;6.686;2023-05-16T05:47:07;8.90;90.00
42663;DHT22;44330;51.360;6.686;2023-05-16T10:14:24;17.20;6.30
42663;DHT22;44330;51.360;6.686;2023-05-16T10:16:51;17.10;1.00
42663;DHT22;44330;51.360;6.686;2023-05-16T10:19:19;17.00;99.90
42663;DHT22;44330;51.360;6.686;2023-05-16T10:21:50;16.80;99.90
42663;DHT22;44330;51.360;6.686;2023-05-16T10:24:23;16.70;1.00
42663;DHT22;44330;51.360;6.686;2023-05-16T10:26:51;16.90;10.00
42663;DHT22;44330;51.360;6.686;2023-05-16T10:29:18;16.80;1.00
42663;DHT22;44330;51.360;6.686;2023-05-16T10:31:48;16.80;20.70
42663;DHT22;44330;51.360;6.686;2023-05-16T10:34:18;16.80;15.80
42663;DHT22;44330;51.360;6.686;2023-05-16T10:40:10;16.20;1.00
42663;DHT22;44330;51.360;6.686;2023-05-16T10:42:43;16.00;30.00
42663;DHT22;44330;51.360;6.686;2023-05-16T10:45:24;15.90;1.00
42663;DHT22;44330;51.360;6.686;2023-05-16T10:48:17;15.80;79.30
42663;DHT22;44330;51.360;6.686;2023-05-16T10:51:01;15.80;68.50
42663;DHT22;44330;51.360;6.686;2023-05-16T10:53:35;15.90;21.30
42663;DHT22;44330;51.360;6.686;2023-05-16T11:01:25;16.90;9.60
42663;DHT22;44330;51.360;6.686;2023-05-16T11:04:21;17.30;46.20
42663;DHT22;44330;51.360;6.686;2023-05-16T11:07:14;17.80;41.30
42663;DHT22;44330;51.360;6.686;2023-05-16T11:09:45;17.90;1.00
42663;DHT22;44330;51.360;6.686;2023-05-16T11:12:19;18.10;1.00
42663;DHT22;44330;51.360;6.686;2023-05-16T11:14:50;18.40;1.00
42663;DHT22;44330;51.360;6.686;2023-05-16T11:17:23;18.60;1.00
42663;DHT22;44330;51.360;6.686;2023-05-16T11:19:56;18.80;99.90
42663;DHT22;44330;51.360;6.686;2023-05-16T11:25:34;18.90;99.90
42663;DHT22;44330;51.360;6.686;2023-05-16T11:28:01;18.70;99.90
42663;DHT22;44330;51.360;6.686;2023-05-16T11:30:51;18.50;99.90
42663;DHT22;44330;51.360;6.686;2023-05-16T11:33:17;18.40;99.90
42663;DHT22;44330;51.360;6.686;2023-05-16T11:39:48;18.00;99.90
42663;DHT22;44330;51.360;6.686;2023-05-16T11:42:48;17.60;99.90
42663;DHT22;44330;51.360;6.686;2023-05-16T11:56:18;17.00;99.90
42663;DHT22;44330;51.360;6.686;2023-05-16T11:58:58;17.10;99.90
42663;DHT22;44330;51.360;6.686;2023-05-16T12:04:37;17.80;1.00
42663;DHT22;44330;51.360;6.686;2023-05-16T12:07:02;18.40;1.00
42663;DHT22;44330;51.360;6.686;2023-05-16T12:09:36;18.80;99.90
42663;DHT22;44330;51.360;6.686;2023-05-16T12:12:14;18.90;99.90
42663;DHT22;44330;51.360;6.686;2023-05-16T12:14:43;18.80;99.90
42663;DHT22;44330;51.360;6.686;2023-05-16T12:17:11;18.70;99.90
42663;DHT22;44330;51.360;6.686;2023-05-16T12:19:41;18.80;99.90
42663;DHT22;44330;51.360;6.686;2023-05-16T12:22:24;19.00;99.90
42663;DHT22;44330;51.360;6.686;2023-05-16T12:24:53;19.10;99.90
42663;DHT22;44330;51.360;6.686;2023-05-16T12:27:25;19.40;99.90
42663;DHT22;44330;51.360;6.686;2023-05-16T12:29:57;19.60;99.90
42663;DHT22;44330;51.360;6.686;2023-05-16T12:32:23;19.80;99.90
42663;DHT22;44330;51.360;6.686;2023-05-16T12:34:50;20.10;99.90
42663;DHT22;44330;51.360;6.686;2023-05-16T12:37:19;19.90;93.80
42663;DHT22;44330;51.360;6.686;2023-05-16T12:40:07;19.80;80.60
42663;DHT22;44330;51.360;6.686;2023-05-16T12:42:53;20.10;99.90
42663;DHT22;44330;51.360;6.686;2023-05-16T12:45:25;20.30;53.90
42663;DHT22;44330;51.360;6.686;2023-05-16T12:47:52;19.90;6.50
42663;DHT22;44330;51.360;6.686;2023-05-16T12:50:17;19.80;10.90
42663;DHT22;44330;51.360;6.686;2023-05-16T12:52:51;20.00;22.50
42663;DHT22;44330;51.360;6.686;2023-05-16T12:55:17;19.80;11.50
42663;DHT22;44330;51.360;6.686;2023-05-16T12:57:44;19.80;27.10
42663;DHT22;44330;51.360;6.686;2023-05-16T13:00:27;20.00;14.40
42663;DHT22;44330;51.360;6.686;2023-05-16T13:02:52;20.30;25.20
42663;DHT22;44330;51.360;6.686;2023-05-16T13:05:19;20.30;19.90
42663;DHT22;44330;51.360;6.686;2023-05-16T13:07:46;20.50;18.30
42663;DHT22;44330;51.360;6.686;2023-05-16T13:10:12;20.60;1.00
42663;DHT22;44330;51.360;6.686;2023-05-16T13:12:38;20.70;7.50
42663;DHT22;44330;51.360;6.686;2023-05-16T13:15:06;20.30;1.00
42663;DHT22;44330;51.360;6.686;2023-05-16T13:17:33;20.40;8.80
42663;DHT22;44330;51.360;6.686;2023-05-16T13:19:58;20.60;27.60
42663;DHT22;44330;51.360;6.686;2023-05-16T13:22:24;20.80;9.20
42663;DHT22;44330;51.360;6.686;2023-05-16T13:24:50;20.70;1.80
42663;DHT22;44330;51.360;6.686;2023-05-16T13:27:16;20.40;1.00
42663;DHT22;44330;51.360;6.686;2023-05-16T13:29:44;20.00;1.00
42663;DHT22;44330;51.360;6.686;2023-05-16T13:32:10;19.90;1.00
42663;DHT22;44330;51.360;6.686;2023-05-16T13:34:36;19.60;1.00
42663;DHT22;44330;51.360;6.686;2023-05-16T13:37:01;19.00;1.00
42663;DHT22;44330;51.360;6.686;2023-05-16T13:39:30;18.70;1.00
42663;DHT22;44330;51.360;6.686;2023-05-16T13:42:07;18.50;1.00
42663;DHT22;44330;51.360;6.686;2023-05-16T13:44:33;18.50;1.00
42663;DHT22;44330;51.360;6.686;2023-05-16T13:46:58;18.70;1.90
42663;DHT22;44330;51.360;6.686;2023-05-16T13:49:27;19.10;7.00
42663;DHT22;44330;51.360;6.686;2023-05-16T13:51:53;19.50;9.80
42663;DHT22;44330;51.360;6.686;2023-05-16T13:57:40;19.80;1.00
42663;DHT22;44330;51.360;6.686;2023-05-16T14:00:06;19.70;1.00
42663;DHT22;44330;51.360;6.686;2023-05-16T14:02:41;19.70;1.00
42663;DHT22;44330;51.360;6.686;2023-05-16T14:05:10;19.30;1.00
42663;DHT22;44330;51.360;6.686;2023-05-16T14:07:36;19.40;1.00
42663;DHT22;44330;51.360;6.686;2023-05-16T14:10:02;19.10;1.00
42663;DHT22;44330;51.360;6.686;2023-05-16T14:12:28;19.10;1.00
42663;DHT22;44330;51.360;6.686;2023-05-16T14:15:07;19.10;1.00
42663;DHT22;44330;51.360;6.686;2023-05-16T14:17:35;19.50;1.00
42663;DHT22;44330;51.360;6.686;2023-05-16T14:20:01;19.70;1.00
42663;DHT22;44330;51.360;6.686;2023-05-16T14:22:28;19.70;1.00
42663;DHT22;44330;51.360;6.686;2023-05-16T14:24:54;19.80;1.00
42663;DHT22;44330;51.360;6.686;2023-05-16T14:27:19;19.80;1.00
42663;DHT22;44330;51.360;6.686;2023-05-16T14:29:45;19.10;1.00
42663;DHT22;44330;51.360;6.686;2023-05-16T14:32:13;19.20;1.00
42663;DHT22;44330;51.360;6.686;2023-05-16T14:34:45;18.90;1.00
42663;DHT22;44330;51.360;6.686;2023-05-16T14:37:11;18.70;1.00
42663;DHT22;44330;51.360;6.686;2023-05-16T14:39:40;18.50;1.00
42663;DHT22;44330;51.360;6.686;2023-05-16T14:42:16;18.30;1.00
42663;DHT22;44330;51.360;6.686;2023-05-16T14:44:48;18.40;1.00
42663;DHT22;44330;51.360;6.686;2023-05-16T14:47:17;18.40;1.00
42663;DHT22;44330;51.360;6.686;2023-05-16T14:49:46;18.40;1.00
42663;DHT22;44330;51.360;6.686;2023-05-16T14:52:19;18.30;1.00
42663;DHT22;44330;51.360;6.686;2023-05-16T14:54:45;18.20;1.00
42663;DHT22;44330;51.360;6.686;2023-05-16T14:57:10;18.00;1.00
42663;DHT22;44330;51.360;6.686;2023-05-16T14:59:39;17.80;1.00
42663;DHT22;44330;51.360;6.686;2023-05-16T15:02:05;17.70;1.00
42663;DHT22;44330;51.360;6.686;2023-05-16T15:04:37;17.30;1.00
42663;DHT22;44330;51.360;6.686;2023-05-16T15:07:02;17.40;1.00
42663;DHT22;44330;51.360;6.686;2023-05-16T15:09:28;17.20;1.00
42663;DHT22;44330;51.360;6.686;2023-05-16T15:11:54;17.30;1.00
42663;DHT22;44330;51.360;6.686;2023-05-16T15:14:19;17.20;1.00
42663;DHT22;44330;51.360;6.686;2023-05-16T15:16:45;17.00;1.00
42663;DHT22;44330;51.360;6.686;2023-05-16T15:19:11;17.00;1.00
42663;DHT22;44330;51.360;6.686;2023-05-16T15:21:37;16.90;1.00
42663;DHT22;44330;51.360;6.686;2023-05-16T15:24:08;16.90;1.00
42663;DHT22;44330;51.360;6.686;2023-05-16T15:26:33;16.90;1.00
42663;DHT22;44330;51.360;6.686;2023-05-16T15:28:59;16.90;4.60
42663;DHT22;44330;51.360;6.686;2023-05-16T15:31:25;16.90;8.70
42663;DHT22;44330;51.360;6.686;2023-05-16T15:33:51;16.80;2.90
42663;DHT22;44330;51.360;6.686;2023-05-16T15:36:16;16.80;10.40
42663;DHT22;44330;51.360;6.686;2023-05-16T15:38:42;16.70;11.20
42663;DHT22;44330;51.360;6.686;2023-05-16T15:41:10;16.60;5.30
42663;DHT22;44330;51.360;6.686;2023-05-16T15:43:35;16.50;17.80
42663;DHT22;44330;51.360;6.686;2023-05-16T15:46:01;16.30;8.30
42663;DHT22;44330;51.360;6.686;2023-05-16T15:48:26;16.10;21.90
42663;DHT22;44330;51.360;6.686;2023-05-16T15:50:52;15.90;28.20
42663;DHT22;44330;51.360;6.686;2023-05-16T15:53:18;15.80;49.10
42663;DHT22;44330;51.360;6.686;2023-05-16T15:55:43;15.60;52.20
42663;DHT22;44330;51.360;6.686;2023-05-16T15:58:09;15.40;60.40
42663;DHT22;44330;51.360;6.686;2023-05-16T16:00:34;15.40;82.80
42663;DHT22;44330;51.360;6.686;2023-05-16T16:03:00;15.30;91.50
42663;DHT22;44330;51.360;6.686;2023-05-16T16:05:26;15.30;99.90
42663;DHT22;44330;51.360;6.686;2023-05-16T16:07:52;15.30;99.90
42663;DHT22;44330;51.360;6.686;2023-05-16T16:10:18;15.30;99.90
42663;DHT22;44330;51.360;6.686;2023-05-16T16:12:59;15.30;99.90
42663;DHT22;44330;51.360;6.686;2023-05-16T16:15:27;15.30;99.90
42663;DHT22;44330;51.360;6.686;2023-05-16T16:17:59;15.20;99.90
42663;DHT22;44330;51.360;6.686;2023-05-16T16:20:25;15.00;99.90
42663;DHT22;44330;51.360;6.686;2023-05-16T16:22:51;15.00;99.90
42663;DHT22;44330;51.360;6.686;2023-05-16T16:25:17;15.00;99.90
42663;DHT22;44330;51.360;6.686;2023-05-16T16:27:46;15.00;99.90
42663;DHT22;44330;51.360;6.686;2023-05-16T16:30:15;15.00;99.90
42663;DHT22;44330;51.360;6.686;2023-05-16T16:32:43;14.90;99.90
42663;DHT22;44330;51.360;6.686;2023-05-16T16:35:09;15.00;99.90
42663;DHT22;44330;51.360;6.686;2023-05-16T16:37:35;15.00;99.90
42663;DHT22;44330;51.360;6.686;2023-05-16T16:40:00;15.00;99.90
42663;DHT22;44330;51.360;6.686;2023-05-16T16:42:26;15.00;99.90
42663;DHT22;44330;51.360;6.686;2023-05-16T16:44:55;15.00;99.90
42663;DHT22;44330;51.360;6.686;2023-05-16T16:47:28;15.10;99.90
42663;DHT22;44330;51.360;6.686;2023-05-16T16:49:54;15.20;99.90
42663;DHT22;44330;51.360;6.686;2023-05-16T16:52:20;15.20;99.90
42663;DHT22;44330;51.360;6.686;2023-05-16T16:54:45;15.20;99.90
42663;DHT22;44330;51.360;6.686;2023-05-16T16:57:11;15.10;99.90
42663;DHT22;44330;51.360;6.686;2023-05-16T16:59:36;14.90;99.90
42663;DHT22;44330;51.360;6.686;2023-05-16T17:02:02;14.90;99.90
42663;DHT22;44330;51.360;6.686;2023-05-16T17:04:28;14.90;1.00
42663;DHT22;44330;51.360;6.686;2023-05-16T17:06:53;15.00;1.00
42663;DHT22;44330;51.360;6.686;2023-05-16T17:09:19;15.00;1.00
42663;DHT22;44330;51.360;6.686;2023-05-16T17:11:49;14.90;1.00
42663;DHT22;44330;51.360;6.686;2023-05-16T17:14:15;14.80;1.00
42663;DHT22;44330;51.360;6.686;2023-05-16T17:16:41;14.80;71.40
42663;DHT22;44330;51.360;6.686;2023-05-16T17:19:07;14.80;99.90
42663;DHT22;44330;51.360;6.686;2023-05-16T17:21:36;14.80;99.90
42663;DHT22;44330;51.360;6.686;2023-05-16T17:24:06;14.90;99.90
42663;DHT22;44330;51.360;6.686;2023-05-16T17:26:31;14.80;99.90
42663;DHT22;44330;51.360;6.686;2023-05-16T17:29:00;14.80;99.90
42663;DHT22;44330;51.360;6.686;2023-05-16T17:31:28;14.70;99.90
42663;DHT22;44330;51.360;6.686;2023-05-16T17:33:54;14.60;99.90
42663;DHT22;44330;51.360;6.686;2023-05-16T17:36:19;14.40;99.90
42663;DHT22;44330;51.360;6.686;2023-05-16T17:38:54;14.30;99.90
42663;DHT22;44330;51.360;6.686;2023-05-16T17:41:19;14.20;99.90
42663;DHT22;44330;51.360;6.686;2023-05-16T17:43:46;14.10;99.90
42663;DHT22;44330;51.360;6.686;2023-05-16T17:46:12;14.10;99.90
42663;DHT22;44330;51.360;6.686;2023-05-16T17:48:37;14.00;99.90
42663;DHT22;44330;51.360;6.686;2023-05-16T17:51:03;14.00;99.90
42663;DHT22;44330;51.360;6.686;2023-05-16T17:53:32;14.00;99.90
42663;DHT22;44330;51.360;6.686;2023-05-16T17:55:57;14.10;99.90
42663;DHT22;44330;51.360;6.686;2023-05-16T17:58:23;14.00;99.90
42663;DHT22;44330;51.360;6.686;2023-05-16T18:00:49;14.00;99.90
42663;DHT22;44330;51.360;6.686;2023-05-16T18:03:15;13.90;99.90
42663;DHT22;44330;51.360;6.686;2023-05-16T18:05:41;13.90;99.90
42663;DHT22;44330;51.360;6.686;2023-05-16T18:08:07;13.90;99.90
42663;DHT22;44330;51.360;6.686;2023-05-16T18:10:42;13.80;99.90
42663;DHT22;44330;51.360;6.686;2023-05-16T18:13:09;13.80;99.90
42663;DHT22;44330;51.360;6.686;2023-05-16T18:15:37;13.80;1.00
42663;DHT22;44330;51.360;6.686;2023-05-16T18:18:03;13.70;93.80
42663;DHT22;44330;51.360;6.686;2023-05-16T18:20:32;13.70;1.00
42663;DHT22;44330;51.360;6.686;2023-05-16T18:23:01;13.70;99.90
42663;DHT22;44330;51.360;6.686;2023-05-16T18:25:38;13.70;99.90
42663;DHT22;44330;51.360;6.686;2023-05-16T18:28:03;13.70;91.40
42663;DHT22;44330;51.360;6.686;2023-05-16T18:30:31;13.60;99.90
42663;DHT22;44330;51.360;6.686;2023-05-16T18:32:58;13.60;99.90
42663;DHT22;44330;51.360;6.686;2023-05-16T18:35:23;13.50;1.00
42663;DHT22;44330;51.360;6.686;2023-05-16T18:37:51;13.50;99.90
42663;DHT22;44330;51.360;6.686;2023-05-16T18:40:17;13.40;99.90
42663;DHT22;44330;51.360;6.686;2023-05-16T18:42:43;13.50;99.90
42663;DHT22;44330;51.360;6.686;2023-05-16T18:45:09;13.40;1.00
42663;DHT22;44330;51.360;6.686;2023-05-16T18:47:34;13.30;99.90
42663;DHT22;44330;51.360;6.686;2023-05-16T18:50:04;13.30;99.90
42663;DHT22;44330;51.360;6.686;2023-05-16T18:52:30;13.20;99.90
42663;DHT22;44330;51.360;6.686;2023-05-16T18:55:10;13.20;61.80
42663;DHT22;44330;51.360;6.686;2023-05-16T18:57:36;13.30;1.00
42663;DHT22;44330;51.360;6.686;2023-05-16T19:00:03;13.20;1.00
42663;DHT22;44330;51.360;6.686;2023-05-16T19:02:30;13.10;22.80
42663;DHT22;44330;51.360;6.686;2023-05-16T19:04:55;13.10;99.90
42663;DHT22;44330;51.360;6.686;2023-05-16T19:07:21;13.10;99.90
42663;DHT22;44330;51.360;6.686;2023-05-16T19:09:47;13.00;1.00
42663;DHT22;44330;51.360;6.686;2023-05-16T19:12:13;13.00;99.90
42663;DHT22;44330;51.360;6.686;2023-05-16T19:14:38;13.00;71.40
42663;DHT22;44330;51.360;6.686;2023-05-16T19:17:04;13.00;99.90
42663;DHT22;44330;51.360;6.686;2023-05-16T19:19:30;13.00;90.70
42663;DHT22;44330;51.360;6.686;2023-05-16T19:21:57;13.00;99.90
42663;DHT22;44330;51.360;6.686;2023-05-16T19:24:22;13.00;1.00
42663;DHT22;44330;51.360;6.686;2023-05-16T19:26:51;12.90;99.90
42663;DHT22;44330;51.360;6.686;2023-05-16T19:29:17;12.80;99.90
42663;DHT22;44330;51.360;6.686;2023-05-16T19:31:45;12.90;99.90
42663;DHT22;44330;51.360;6.686;2023-05-16T19:34:13;12.70;1.00
42663;DHT22;44330;51.360;6.686;2023-05-16T19:36:41;12.70;99.90
42663;DHT22;44330;51.360;6.686;2023-05-16T19:39:07;12.70;99.90
42663;DHT22;44330;51.360;6.686;2023-05-16T19:41:32;12.70;1.00
42663;DHT22;44330;51.360;6.686;2023-05-16T19:44:01;12.60;14.30
42663;DHT22;44330;51.360;6.686;2023-05-16T19:46:27;12.60;99.90
42663;DHT22;44330;51.360;6.686;2023-05-16T19:49:22;12.60;99.90
42663;DHT22;44330;51.360;6.686;2023-05-16T19:51:54;12.60;99.90
42663;DHT22;44330;51.360;6.686;2023-05-16T19:54:19;12.70;99.90
42663;DHT22;44330;51.360;6.686;2023-05-16T19:56:45;12.60;99.90
42663;DHT22;44330;51.360;6.686;2023-05-16T20:02:55;12.50;99.90
42663;DHT22;44330;51.360;6.686;2023-05-16T20:08:47;12.40;99.90
42663;DHT22;44330;51.360;6.686;2023-05-16T20:11:23;12.30;99.90
42663;DHT22;44330;51.360;6.686;2023-05-16T20:13:49;12.30;99.90
42663;DHT22;44330;51.360;6.686;2023-05-16T20:16:20;12.30;99.90
42663;DHT22;44330;51.360;6.686;2023-05-16T20:18:46;12.30;99.90
42663;DHT22;44330;51.360;6.686;2023-05-16T20:21:45;12.20;99.90
42663;DHT22;44330;51.360;6.686;2023-05-16T20:24:12;12.20;99.90
42663;DHT22;44330;51.360;6.686;2023-05-16T20:26:39;12.20;99.90
42663;DHT22;44330;51.360;6.686;2023-05-16T20:29:04;12.20;99.90
42663;DHT22;44330;51.360;6.686;2023-05-16T20:31:30;12.20;99.90
42663;DHT22;44330;51.360;6.686;2023-05-16T20:33:59;12.20;99.90
42663;DHT22;44330;51.360;6.686;2023-05-16T20:36:25;12.10;99.90
42663;DHT22;44330;51.360;6.686;2023-05-16T20:38:50;12.20;99.90
42663;DHT22;44330;51.360;6.686;2023-05-16T20:41:22;12.20;99.90
42663;DHT22;44330;51.360;6.686;2023-05-16T20:43:48;12.20;99.90
42663;DHT22;44330;51.360;6.686;2023-05-16T20:46:17;12.20;99.90
42663;DHT22;44330;51.360;6.686;2023-05-16T20:48:43;12.20;99.90
42663;DHT22;44330;51.360;6.686;2023-05-16T20:51:09;12.20;99.90
42663;DHT22;44330;51.360;6.686;2023-05-16T20:53:34;12.20;99.90
42663;DHT22;44330;51.360;6.686;2023-05-16T20:56:00;12.20;1.00
42663;DHT22;44330;51.360;6.686;2023-05-16T20:58:26;12.10;1.00
42663;DHT22;44330;51.360;6.686;2023-05-16T21:00:52;12.10;99.90
42663;DHT22;44330;51.360;6.686;2023-05-16T21:03:17;12.00;99.90
42663;DHT22;44330;51.360;6.686;2023-05-16T21:05:43;12.00;1.00
42663;DHT22;44330;51.360;6.686;2023-05-16T21:08:08;11.90;1.00
42663;DHT22;44330;51.360;6.686;2023-05-16T21:10:34;11.90;1.00
42663;DHT22;44330;51.360;6.686;2023-05-16T21:13:03;12.00;1.00
42663;DHT22;44330;51.360;6.686;2023-05-16T21:15:29;11.90;1.00
42663;DHT22;44330;51.360;6.686;2023-05-16T21:17:54;11.80;1.00
42663;DHT22;44330;51.360;6.686;2023-05-16T21:20:20;11.90;1.00
42663;DHT22;44330;51.360;6.686;2023-05-16T21:22:46;11.70;1.00
42663;DHT22;44330;51.360;6.686;2023-05-16T21:25:11;11.70;1.00
42663;DHT22;44330;51.360;6.686;2023-05-16T21:27:37;11.60;1.00
42663;DHT22;44330;51.360;6.686;2023-05-16T21:30:04;11.50;1.00
42663;DHT22;44330;51.360;6.686;2023-05-16T21:32:30;11.50;1.00
42663;DHT22;44330;51.360;6.686;2023-05-16T21:34:59;11.40;1.00
42663;DHT22;44330;51.360;6.686;2023-05-16T21:37:25;11.30;1.00
42663;DHT22;44330;51.360;6.686;2023-05-16T21:39:51;11.20;1.00
42663;DHT22;44330;51.360;6.686;2023-05-16T21:42:16;11.10;1.00
42663;DHT22;44330;51.360;6.686;2023-05-16T21:44:42;11.10;1.00
42663;DHT22;44330;51.360;6.686;2023-05-16T21:47:08;10.90;1.00
42663;DHT22;44330;51.360;6.686;2023-05-16T21:49:33;10.90;1.00
42663;DHT22;44330;51.360;6.686;2023-05-16T21:52:00;10.70;1.00
42663;DHT22;44330;51.360;6.686;2023-05-16T21:54:25;10.70;1.00
42663;DHT22;44330;51.360;6.686;2023-05-16T21:56:51;10.60;1.00
42663;DHT22;44330;51.360;6.686;2023-05-16T21:59:17;10.70;1.00
42663;DHT22;44330;51.360;6.686;2023-05-16T22:01:42;10.50;1.00
42663;DHT22;44330;51.360;6.686;2023-05-16T22:04:08;10.40;1.00
42663;DHT22;44330;51.360;6.686;2023-05-16T22:06:34;10.40;1.00
42663;DHT22;44330;51.360;6.686;2023-05-16T22:08:59;10.30;1.00
42663;DHT22;44330;51.360;6.686;2023-05-16T22:11:26;10.30;1.00
42663;DHT22;44330;51.360;6.686;2023-05-16T22:13:51;10.20;1.00
42663;DHT22;44330;51.360;6.686;2023-05-16T22:16:17;10.20;1.00
42663;DHT22;44330;51.360;6.686;2023-05-16T22:18:43;10.10;1.70
42663;DHT22;44330;51.360;6.686;2023-05-16T22:21:09;10.00;7.80
42663;DHT22;44330;51.360;6.686;2023-05-16T22:23:36;10.00;12.30
42663;DHT22;44330;51.360;6.686;2023-05-16T22:26:01;9.90;17.30
42663;DHT22;44330;51.360;6.686;2023-05-16T22:28:27;10.00;21.40
42663;DHT22;44330;51.360;6.686;2023-05-16T22:30:53;9.80;24.60
42663;DHT22;44330;51.360;6.686;2023-05-16T22:33:19;9.80;26.80
42663;DHT22;44330;51.360;6.686;2023-05-16T22:35:46;9.80;29.60
42663;DHT22;44330;51.360;6.686;2023-05-16T22:38:12;9.70;30.90
42663;DHT22;44330;51.360;6.686;2023-05-16T22:40:37;9.70;32.80
42663;DHT22;44330;51.360;6.686;2023-05-16T22:43:05;9.70;36.50
42663;DHT22;44330;51.360;6.686;2023-05-16T22:45:31;9.60;38.10
42663;DHT22;44330;51.360;6.686;2023-05-16T22:47:56;9.60;40.60
42663;DHT22;44330;51.360;6.686;2023-05-16T22:50:22;9.50;43.00
42663;DHT22;44330;51.360;6.686;2023-05-16T22:52:48;9.60;47.30
42663;DHT22;44330;51.360;6.686;2023-05-16T22:55:14;9.50;49.50
42663;DHT22;44330;51.360;6.686;2023-05-16T22:57:39;9.50;52.30
42663;DHT22;44330;51.360;6.686;2023-05-16T23:00:05;9.50;53.10
42663;DHT22;44330;51.360;6.686;2023-05-16T23:02:32;9.40;53.40
42663;DHT22;44330;51.360;6.686;2023-05-16T23:04:58;9.40;54.90
42663;DHT22;44330;51.360;6.686;2023-05-16T23:07:24;9.30;56.60
42663;DHT22;44330;51.360;6.686;2023-05-16T23:09:49;9.30;58.00
42663;DHT22;44330;51.360;6.686;2023-05-16T23:12:15;9.30;57.40
42663;DHT22;44330;51.360;6.686;2023-05-16T23:14:41;9.20;58.10
42663;DHT22;44330;51.360;6.686;2023-05-16T23:17:06;9.10;59.60
42663;DHT22;44330;51.360;6.686;2023-05-16T23:19:32;9.00;62.30
42663;DHT22;44330;51.360;6.686;2023-05-16T23:21:57;9.00;63.10
42663;DHT22;44330;51.360;6.686;2023-05-16T23:24:23;9.00;64.70
42663;DHT22;44330;51.360;6.686;2023-05-16T23:26:49;8.90;65.80
42663;DHT22;44330;51.360;6.686;2023-05-16T23:29:15;8.90;66.50
42663;DHT22;44330;51.360;6.686;2023-05-16T23:31:40;8.90;67.20
42663;DHT22;44330;51.360;6.686;2023-05-16T23:34:06;8.80;68.60
42663;DHT22;44330;51.360;6.686;2023-05-16T23:36:32;8.80;70.10
42663;DHT22;44330;51.360;6.686;2023-05-16T23:38:57;8.80;70.50
42663;DHT22;44330;51.360;6.686;2023-05-16T23:41:23;8.80;71.90
42663;DHT22;44330;51.360;6.686;2023-05-16T23:43:49;8.80;73.30
42663;DHT22;44330;51.360;6.686;2023-05-16T23:46:14;8.80;74.00
42663;DHT22;44330;51.360;6.686;2023-05-16T23:48:40;8.90;75.00
42663;DHT22;44330;51.360;6.686;2023-05-16T23:51:05;8.80;73.80
42663;DHT22;44330;51.360;6.686;2023-05-16T23:53:33;8.90;73.70
42663;DHT22;44330;51.360;6.686;2023-05-16T23:55:59;8.80;74.10
42663;DHT22;44330;51.360;6.686;2023-05-16T23:58:24;8.80;74.20
